createdAt,value
2017-12-13T00:02:00.772Z,4.80
2017-12-13T00:04:35.751Z,4.70
2017-12-13T00:07:11.393Z,4.70
2017-12-13T00:09:45.679Z,4.80
2017-12-13T00:12:24.242Z,4.60
2017-12-13T00:14:58.369Z,4.60
2017-12-13T00:17:35.157Z,4.80
2017-12-13T00:20:10.911Z,4.70
2017-12-13T00:22:46.578Z,4.80
2017-12-13T00:25:22.402Z,4.80
2017-12-13T00:28:02.505Z,4.50
2017-12-13T00:30:36.362Z,4.40
2017-12-13T00:33:13.294Z,4.50
2017-12-13T00:35:49.299Z,4.30
2017-12-13T00:38:27.277Z,4.00
2017-12-13T00:41:02.491Z,4.00
2017-12-13T00:43:37.522Z,4.00
2017-12-13T00:46:13.987Z,3.90
2017-12-13T00:48:51.226Z,3.60
2017-12-13T01:10:33.538Z,3.60
2017-12-13T01:13:07.699Z,3.40
2017-12-13T01:15:41.647Z,3.40
2017-12-13T01:18:17.251Z,3.30
2017-12-13T01:20:52.328Z,3.50
2017-12-13T01:23:28.282Z,3.40
2017-12-13T01:26:06.710Z,3.40
2017-12-13T01:28:41.476Z,3.50
2017-12-13T01:31:16.331Z,3.30
2017-12-13T01:33:51.013Z,3.30
2017-12-13T01:36:26.879Z,3.20
2017-12-13T01:39:01.453Z,3.00
2017-12-13T01:41:37.891Z,3.20
2017-12-13T01:44:12.048Z,3.00
2017-12-13T01:46:48.699Z,3.00
2017-12-13T01:49:22.473Z,3.20
2017-12-13T01:52:06.656Z,3.00
2017-12-13T01:54:42.679Z,3.00
2017-12-13T01:57:17.283Z,3.20
2017-12-13T02:00:00.303Z,3.20
2017-12-13T02:07:53.233Z,3.00
2017-12-13T02:10:28.920Z,3.00
2017-12-13T02:13:08.335Z,3.10
2017-12-13T02:15:44.677Z,3.20
2017-12-13T02:18:24.506Z,3.20
2017-12-13T02:21:07.676Z,3.20
2017-12-13T02:23:40.483Z,3.30
2017-12-13T02:26:15.913Z,3.20
2017-12-13T02:28:49.989Z,3.10
2017-12-13T02:31:26.866Z,3.00
2017-12-13T02:34:00.454Z,3.10
2017-12-13T02:36:36.501Z,3.00
2017-12-13T02:39:10.829Z,3.20
2017-12-13T02:41:46.644Z,3.10
2017-12-13T02:44:24.228Z,3.10
2017-12-13T02:46:58.597Z,3.00
2017-12-13T02:49:33.008Z,3.10
2017-12-13T02:52:06.435Z,3.00
2017-12-13T02:54:41.146Z,3.00
2017-12-13T02:57:14.970Z,3.10
2017-12-13T02:59:51.621Z,3.20
2017-12-13T03:02:29.884Z,3.30
2017-12-13T03:05:02.910Z,3.30
2017-12-13T03:07:38.846Z,3.10
2017-12-13T03:10:13.476Z,3.10
2017-12-13T03:12:48.640Z,3.20
2017-12-13T03:15:23.067Z,3.00
2017-12-13T03:20:39.280Z,3.30
2017-12-13T03:23:12.903Z,3.20
